sensor_id;sensor_type;location;lat;lon;timestamp;temperature;humidity
23520;DHT22;11936;50.820;4.336;2023-06-22T00:01:18;23.50;98.40
23520;DHT22;11936;50.820;4.336;2023-06-22T00:03:44;23.50;98.80
23520;DHT22;11936;50.820;4.336;2023-06-22T00:06:09;23.40;98.60
23520;DHT22;11936;50.820;4.336;2023-06-22T00:08:35;23.40;98.10
23520;DHT22;11936;50.820;4.336;2023-06-22T00:11:01;23.50;97.70
23520;DHT22;11936;50.820;4.336;2023-06-22T00:13:26;23.40;97.60
23520;DHT22;11936;50.820;4.336;2023-06-22T00:15:52;23.40;97.50
23520;DHT22;11936;50.820;4.336;2023-06-22T00:18:17;23.50;97.20
23520;DHT22;11936;50.820;4.336;2023-06-22T00:20:43;23.50;97.40
23520;DHT22;11936;50.820;4.336;2023-06-22T00:23:11;23.50;97.10
23520;DHT22;11936;50.820;4.336;2023-06-22T00:25:40;23.60;96.80
23520;DHT22;11936;50.820;4.336;2023-06-22T00:28:06;23.50;96.90
23520;DHT22;11936;50.820;4.336;2023-06-22T00:30:33;23.60;96.60
23520;DHT22;11936;50.820;4.336;2023-06-22T00:32:59;23.60;97.00
23520;DHT22;11936;50.820;4.336;2023-06-22T00:35:26;23.50;96.70
23520;DHT22;11936;50.820;4.336;2023-06-22T00:37:58;23.50;97.00
23520;DHT22;11936;50.820;4.336;2023-06-22T00:40:28;23.40;97.30
23520;DHT22;11936;50.820;4.336;2023-06-22T00:42:54;23.50;97.40
23520;DHT22;11936;50.820;4.336;2023-06-22T00:45:20;23.60;97.40
23520;DHT22;11936;50.820;4.336;2023-06-22T00:47:47;23.70;97.30
23520;DHT22;11936;50.820;4.336;2023-06-22T00:50:18;23.80;97.70
23520;DHT22;11936;50.820;4.336;2023-06-22T00:52:48;23.70;97.50
23520;DHT22;11936;50.820;4.336;2023-06-22T00:55:14;23.70;97.70
23520;DHT22;11936;50.820;4.336;2023-06-22T00:57:42;23.70;98.00
23520;DHT22;11936;50.820;4.336;2023-06-22T01:00:08;23.70;98.00
23520;DHT22;11936;50.820;4.336;2023-06-22T01:02:36;23.70;97.90
23520;DHT22;11936;50.820;4.336;2023-06-22T01:05:02;23.60;98.00
23520;DHT22;11936;50.820;4.336;2023-06-22T01:07:44;23.60;98.00
23520;DHT22;11936;50.820;4.336;2023-06-22T01:10:35;23.60;98.00
23520;DHT22;11936;50.820;4.336;2023-06-22T01:13:35;23.60;98.20
23520;DHT22;11936;50.820;4.336;2023-06-22T01:18:42;23.50;98.90
23520;DHT22;11936;50.820;4.336;2023-06-22T01:21:10;23.60;98.90
23520;DHT22;11936;50.820;4.336;2023-06-22T01:29:11;23.50;99.00
23520;DHT22;11936;50.820;4.336;2023-06-22T01:31:39;23.30;98.80
23520;DHT22;11936;50.820;4.336;2023-06-22T01:34:07;23.20;99.00
23520;DHT22;11936;50.820;4.336;2023-06-22T01:36:33;23.30;98.90
23520;DHT22;11936;50.820;4.336;2023-06-22T01:39:01;23.30;99.20
23520;DHT22;11936;50.820;4.336;2023-06-22T01:41:29;23.30;99.30
23520;DHT22;11936;50.820;4.336;2023-06-22T01:43:56;23.20;99.50
23520;DHT22;11936;50.820;4.336;2023-06-22T01:46:22;23.20;99.10
23520;DHT22;11936;50.820;4.336;2023-06-22T01:48:49;23.20;99.50
23520;DHT22;11936;50.820;4.336;2023-06-22T01:51:15;23.20;99.70
23520;DHT22;11936;50.820;4.336;2023-06-22T01:53:41;23.20;99.60
23520;DHT22;11936;50.820;4.336;2023-06-22T01:56:08;23.10;99.30
23520;DHT22;11936;50.820;4.336;2023-06-22T01:58:37;23.20;99.30
23520;DHT22;11936;50.820;4.336;2023-06-22T02:01:12;23.20;99.50
23520;DHT22;11936;50.820;4.336;2023-06-22T02:03:44;23.20;99.50
23520;DHT22;11936;50.820;4.336;2023-06-22T02:06:17;23.30;99.60
23520;DHT22;11936;50.820;4.336;2023-06-22T02:08:53;23.20;99.70
23520;DHT22;11936;50.820;4.336;2023-06-22T02:11:21;23.20;99.90
23520;DHT22;11936;50.820;4.336;2023-06-22T02:13:47;23.20;99.70
23520;DHT22;11936;50.820;4.336;2023-06-22T02:16:14;23.20;99.90
23520;DHT22;11936;50.820;4.336;2023-06-22T02:18:48;23.30;99.80
23520;DHT22;11936;50.820;4.336;2023-06-22T02:21:19;23.30;99.80
23520;DHT22;11936;50.820;4.336;2023-06-22T02:23:45;23.20;99.80
23520;DHT22;11936;50.820;4.336;2023-06-22T02:26:11;23.20;99.90
23520;DHT22;11936;50.820;4.336;2023-06-22T02:28:37;23.20;99.90
23520;DHT22;11936;50.820;4.336;2023-06-22T02:31:02;23.20;99.90
23520;DHT22;11936;50.820;4.336;2023-06-22T02:33:28;23.30;99.90
23520;DHT22;11936;50.820;4.336;2023-06-22T02:35:53;23.20;99.90
23520;DHT22;11936;50.820;4.336;2023-06-22T02:38:19;23.10;99.90
23520;DHT22;11936;50.820;4.336;2023-06-22T02:40:45;23.00;99.90
23520;DHT22;11936;50.820;4.336;2023-06-22T02:43:11;23.10;99.90
23520;DHT22;11936;50.820;4.336;2023-06-22T02:45:37;23.10;99.90
23520;DHT22;11936;50.820;4.336;2023-06-22T02:48:03;23.10;99.80
23520;DHT22;11936;50.820;4.336;2023-06-22T02:50:28;23.10;99.40
23520;DHT22;11936;50.820;4.336;2023-06-22T02:52:54;23.10;99.30
23520;DHT22;11936;50.820;4.336;2023-06-22T02:55:19;23.10;99.20
23520;DHT22;11936;50.820;4.336;2023-06-22T02:57:45;23.10;99.20
23520;DHT22;11936;50.820;4.336;2023-06-22T03:00:13;23.10;99.30
23520;DHT22;11936;50.820;4.336;2023-06-22T03:02:47;23.10;99.40
23520;DHT22;11936;50.820;4.336;2023-06-22T03:05:14;23.00;99.80
23520;DHT22;11936;50.820;4.336;2023-06-22T03:07:43;23.00;99.90
23520;DHT22;11936;50.820;4.336;2023-06-22T03:10:10;22.90;99.90
23520;DHT22;11936;50.820;4.336;2023-06-22T03:12:37;23.00;99.90
23520;DHT22;11936;50.820;4.336;2023-06-22T03:15:07;23.00;99.90
23520;DHT22;11936;50.820;4.336;2023-06-22T03:17:34;23.00;99.90
23520;DHT22;11936;50.820;4.336;2023-06-22T03:19:59;23.00;99.90
23520;DHT22;11936;50.820;4.336;2023-06-22T03:22:25;22.80;99.90
23520;DHT22;11936;50.820;4.336;2023-06-22T03:24:51;22.80;99.90
23520;DHT22;11936;50.820;4.336;2023-06-22T03:27:16;22.80;99.90
23520;DHT22;11936;50.820;4.336;2023-06-22T03:29:43;22.80;99.90
23520;DHT22;11936;50.820;4.336;2023-06-22T03:32:10;22.80;99.90
23520;DHT22;11936;50.820;4.336;2023-06-22T03:34:35;22.70;99.90
23520;DHT22;11936;50.820;4.336;2023-06-22T03:37:04;22.70;99.90
23520;DHT22;11936;50.820;4.336;2023-06-22T03:39:30;22.70;99.90
23520;DHT22;11936;50.820;4.336;2023-06-22T03:41:55;22.60;99.90
23520;DHT22;11936;50.820;4.336;2023-06-22T03:44:21;22.50;99.90
23520;DHT22;11936;50.820;4.336;2023-06-22T03:46:46;22.50;99.90
23520;DHT22;11936;50.820;4.336;2023-06-22T03:49:12;22.60;99.90
23520;DHT22;11936;50.820;4.336;2023-06-22T03:51:37;22.60;99.90
23520;DHT22;11936;50.820;4.336;2023-06-22T03:54:03;22.60;99.90
23520;DHT22;11936;50.820;4.336;2023-06-22T03:56:28;22.70;99.90
23520;DHT22;11936;50.820;4.336;2023-06-22T03:58:54;22.80;99.90
23520;DHT22;11936;50.820;4.336;2023-06-22T04:01:20;22.70;99.90
23520;DHT22;11936;50.820;4.336;2023-06-22T04:03:45;22.80;99.90
23520;DHT22;11936;50.820;4.336;2023-06-22T04:06:13;22.80;99.90
23520;DHT22;11936;50.820;4.336;2023-06-22T04:08:39;22.80;99.90
23520;DHT22;11936;50.820;4.336;2023-06-22T04:11:04;22.90;99.90
23520;DHT22;11936;50.820;4.336;2023-06-22T04:13:30;22.80;99.90
23520;DHT22;11936;50.820;4.336;2023-06-22T04:15:56;22.90;99.90
23520;DHT22;11936;50.820;4.336;2023-06-22T04:18:21;22.80;99.90
23520;DHT22;11936;50.820;4.336;2023-06-22T04:20:47;22.80;99.90
23520;DHT22;11936;50.820;4.336;2023-06-22T04:23:13;22.90;99.90
23520;DHT22;11936;50.820;4.336;2023-06-22T04:25:39;23.00;99.90
23520;DHT22;11936;50.820;4.336;2023-06-22T04:28:05;22.90;99.90
23520;DHT22;11936;50.820;4.336;2023-06-22T04:30:32;22.70;99.90
23520;DHT22;11936;50.820;4.336;2023-06-22T04:32:57;22.80;99.90
23520;DHT22;11936;50.820;4.336;2023-06-22T04:35:26;22.80;99.90
23520;DHT22;11936;50.820;4.336;2023-06-22T04:37:53;22.80;99.90
23520;DHT22;11936;50.820;4.336;2023-06-22T04:40:22;22.80;99.90
23520;DHT22;11936;50.820;4.336;2023-06-22T04:42:47;23.00;99.90
23520;DHT22;11936;50.820;4.336;2023-06-22T04:45:18;23.00;99.90
23520;DHT22;11936;50.820;4.336;2023-06-22T04:47:44;23.00;99.90
23520;DHT22;11936;50.820;4.336;2023-06-22T04:50:11;22.90;99.90
23520;DHT22;11936;50.820;4.336;2023-06-22T04:52:37;22.90;99.90
23520;DHT22;11936;50.820;4.336;2023-06-22T04:55:02;23.00;99.90
23520;DHT22;11936;50.820;4.336;2023-06-22T04:57:29;23.00;99.90
23520;DHT22;11936;50.820;4.336;2023-06-22T05:00:00;23.10;99.90
23520;DHT22;11936;50.820;4.336;2023-06-22T05:02:41;23.10;99.90
23520;DHT22;11936;50.820;4.336;2023-06-22T05:05:07;23.10;99.90
23520;DHT22;11936;50.820;4.336;2023-06-22T05:07:33;23.10;99.90
23520;DHT22;11936;50.820;4.336;2023-06-22T05:10:03;23.00;99.90
23520;DHT22;11936;50.820;4.336;2023-06-22T05:12:29;23.00;99.90
23520;DHT22;11936;50.820;4.336;2023-06-22T05:14:56;23.10;99.90
23520;DHT22;11936;50.820;4.336;2023-06-22T05:17:21;23.10;99.90
23520;DHT22;11936;50.820;4.336;2023-06-22T05:19:47;23.00;99.90
23520;DHT22;11936;50.820;4.336;2023-06-22T05:22:16;23.00;99.90
23520;DHT22;11936;50.820;4.336;2023-06-22T05:24:42;23.00;99.90
23520;DHT22;11936;50.820;4.336;2023-06-22T05:27:08;23.00;99.90
23520;DHT22;11936;50.820;4.336;2023-06-22T05:29:33;23.00;99.90
23520;DHT22;11936;50.820;4.336;2023-06-22T05:31:59;23.10;99.90
23520;DHT22;11936;50.820;4.336;2023-06-22T05:34:25;23.00;99.90
23520;DHT22;11936;50.820;4.336;2023-06-22T05:36:51;23.00;99.90
23520;DHT22;11936;50.820;4.336;2023-06-22T05:39:16;23.00;99.90
23520;DHT22;11936;50.820;4.336;2023-06-22T05:41:44;23.00;99.90
23520;DHT22;11936;50.820;4.336;2023-06-22T05:44:10;23.00;99.90
23520;DHT22;11936;50.820;4.336;2023-06-22T05:46:36;23.00;99.90
23520;DHT22;11936;50.820;4.336;2023-06-22T05:49:02;22.90;99.90
23520;DHT22;11936;50.820;4.336;2023-06-22T05:51:27;22.90;99.90
23520;DHT22;11936;50.820;4.336;2023-06-22T05:53:53;22.80;99.90
23520;DHT22;11936;50.820;4.336;2023-06-22T05:56:18;22.70;99.90
23520;DHT22;11936;50.820;4.336;2023-06-22T05:58:46;22.60;99.90
23520;DHT22;11936;50.820;4.336;2023-06-22T06:01:11;22.60;99.90
23520;DHT22;11936;50.820;4.336;2023-06-22T06:03:37;22.40;99.90
23520;DHT22;11936;50.820;4.336;2023-06-22T06:06:07;22.30;99.90
23520;DHT22;11936;50.820;4.336;2023-06-22T06:08:32;22.30;99.90
23520;DHT22;11936;50.820;4.336;2023-06-22T06:10:58;22.30;99.90
23520;DHT22;11936;50.820;4.336;2023-06-22T06:13:24;22.10;99.90
23520;DHT22;11936;50.820;4.336;2023-06-22T06:15:49;22.20;99.90
23520;DHT22;11936;50.820;4.336;2023-06-22T06:18:16;22.20;99.90
23520;DHT22;11936;50.820;4.336;2023-06-22T06:20:42;22.20;99.90
23520;DHT22;11936;50.820;4.336;2023-06-22T06:23:08;22.20;99.90
23520;DHT22;11936;50.820;4.336;2023-06-22T06:25:33;22.20;99.90
23520;DHT22;11936;50.820;4.336;2023-06-22T06:27:59;22.20;99.90
23520;DHT22;11936;50.820;4.336;2023-06-22T06:30:25;22.30;99.90
23520;DHT22;11936;50.820;4.336;2023-06-22T06:32:50;22.20;99.90
23520;DHT22;11936;50.820;4.336;2023-06-22T06:35:16;22.20;99.90
23520;DHT22;11936;50.820;4.336;2023-06-22T06:37:44;22.30;99.90
23520;DHT22;11936;50.820;4.336;2023-06-22T06:40:11;22.20;99.90
23520;DHT22;11936;50.820;4.336;2023-06-22T06:42:42;22.30;99.90
23520;DHT22;11936;50.820;4.336;2023-06-22T06:45:19;22.30;99.90
23520;DHT22;11936;50.820;4.336;2023-06-22T06:47:46;22.30;99.90
23520;DHT22;11936;50.820;4.336;2023-06-22T06:50:12;22.30;99.90
23520;DHT22;11936;50.820;4.336;2023-06-22T06:52:37;22.40;99.90
23520;DHT22;11936;50.820;4.336;2023-06-22T06:55:03;22.60;99.90
23520;DHT22;11936;50.820;4.336;2023-06-22T06:57:40;22.60;99.90
23520;DHT22;11936;50.820;4.336;2023-06-22T07:00:09;22.70;99.90
23520;DHT22;11936;50.820;4.336;2023-06-22T07:02:39;22.70;99.90
23520;DHT22;11936;50.820;4.336;2023-06-22T07:05:05;22.70;99.90
23520;DHT22;11936;50.820;4.336;2023-06-22T07:07:32;22.70;99.90
23520;DHT22;11936;50.820;4.336;2023-06-22T07:09:57;22.70;99.90
23520;DHT22;11936;50.820;4.336;2023-06-22T07:12:23;22.80;99.90
23520;DHT22;11936;50.820;4.336;2023-06-22T07:14:48;22.80;99.90
23520;DHT22;11936;50.820;4.336;2023-06-22T07:17:15;22.90;99.90
23520;DHT22;11936;50.820;4.336;2023-06-22T07:19:41;23.00;99.90
23520;DHT22;11936;50.820;4.336;2023-06-22T07:22:07;22.90;99.90
23520;DHT22;11936;50.820;4.336;2023-06-22T07:24:33;22.90;99.90
23520;DHT22;11936;50.820;4.336;2023-06-22T07:26:58;22.90;99.90
23520;DHT22;11936;50.820;4.336;2023-06-22T07:29:25;22.90;99.90
23520;DHT22;11936;50.820;4.336;2023-06-22T07:31:52;23.10;99.90
23520;DHT22;11936;50.820;4.336;2023-06-22T07:34:18;23.10;99.90
23520;DHT22;11936;50.820;4.336;2023-06-22T07:36:44;23.10;99.90
23520;DHT22;11936;50.820;4.336;2023-06-22T07:39:11;23.10;99.90
23520;DHT22;11936;50.820;4.336;2023-06-22T07:41:39;23.10;99.90
23520;DHT22;11936;50.820;4.336;2023-06-22T07:44:05;23.10;99.90
23520;DHT22;11936;50.820;4.336;2023-06-22T07:46:32;23.00;99.90
23520;DHT22;11936;50.820;4.336;2023-06-22T07:48:57;23.10;99.90
23520;DHT22;11936;50.820;4.336;2023-06-22T07:51:23;22.90;99.90
23520;DHT22;11936;50.820;4.336;2023-06-22T07:53:49;23.00;99.90
23520;DHT22;11936;50.820;4.336;2023-06-22T07:56:14;23.20;99.90
23520;DHT22;11936;50.820;4.336;2023-06-22T07:58:45;23.30;99.90
23520;DHT22;11936;50.820;4.336;2023-06-22T08:01:11;23.50;99.90
23520;DHT22;11936;50.820;4.336;2023-06-22T08:03:37;23.40;99.90
23520;DHT22;11936;50.820;4.336;2023-06-22T08:06:02;23.50;99.90
23520;DHT22;11936;50.820;4.336;2023-06-22T08:08:28;23.50;99.90
23520;DHT22;11936;50.820;4.336;2023-06-22T08:10:54;23.40;99.90
23520;DHT22;11936;50.820;4.336;2023-06-22T08:13:19;23.40;99.90
23520;DHT22;11936;50.820;4.336;2023-06-22T08:15:45;23.40;99.90
23520;DHT22;11936;50.820;4.336;2023-06-22T08:18:11;23.20;99.90
23520;DHT22;11936;50.820;4.336;2023-06-22T08:20:36;23.00;99.90
23520;DHT22;11936;50.820;4.336;2023-06-22T08:23:02;23.20;99.90
23520;DHT22;11936;50.820;4.336;2023-06-22T08:25:32;23.10;99.90
23520;DHT22;11936;50.820;4.336;2023-06-22T08:27:59;23.20;99.90
23520;DHT22;11936;50.820;4.336;2023-06-22T08:30:25;23.10;99.90
23520;DHT22;11936;50.820;4.336;2023-06-22T08:32:51;23.10;99.90
23520;DHT22;11936;50.820;4.336;2023-06-22T08:35:16;23.00;99.90
23520;DHT22;11936;50.820;4.336;2023-06-22T08:37:42;22.90;99.90
23520;DHT22;11936;50.820;4.336;2023-06-22T08:40:09;22.90;99.90
23520;DHT22;11936;50.820;4.336;2023-06-22T08:42:39;22.90;99.90
23520;DHT22;11936;50.820;4.336;2023-06-22T08:45:06;23.00;99.90
23520;DHT22;11936;50.820;4.336;2023-06-22T08:47:32;22.90;99.90
23520;DHT22;11936;50.820;4.336;2023-06-22T08:49:57;22.80;99.90
23520;DHT22;11936;50.820;4.336;2023-06-22T08:52:23;22.80;99.90
23520;DHT22;11936;50.820;4.336;2023-06-22T08:54:49;22.90;99.90
23520;DHT22;11936;50.820;4.336;2023-06-22T08:57:14;22.80;99.90
23520;DHT22;11936;50.820;4.336;2023-06-22T08:59:41;22.90;99.90
23520;DHT22;11936;50.820;4.336;2023-06-22T09:02:07;22.70;99.90
23520;DHT22;11936;50.820;4.336;2023-06-22T09:04:33;22.80;99.90
23520;DHT22;11936;50.820;4.336;2023-06-22T09:07:00;22.70;99.90
23520;DHT22;11936;50.820;4.336;2023-06-22T09:09:26;22.60;99.90
23520;DHT22;11936;50.820;4.336;2023-06-22T09:11:52;22.60;99.90
23520;DHT22;11936;50.820;4.336;2023-06-22T09:14:17;22.70;99.90
23520;DHT22;11936;50.820;4.336;2023-06-22T09:16:43;22.80;99.90
23520;DHT22;11936;50.820;4.336;2023-06-22T09:19:09;22.80;99.90
23520;DHT22;11936;50.820;4.336;2023-06-22T09:21:34;22.70;99.90
23520;DHT22;11936;50.820;4.336;2023-06-22T09:24:00;22.80;99.90
23520;DHT22;11936;50.820;4.336;2023-06-22T09:26:25;22.80;99.90
23520;DHT22;11936;50.820;4.336;2023-06-22T09:28:51;22.80;99.90
23520;DHT22;11936;50.820;4.336;2023-06-22T09:31:17;22.80;99.90
23520;DHT22;11936;50.820;4.336;2023-06-22T09:33:43;22.70;99.90
23520;DHT22;11936;50.820;4.336;2023-06-22T09:36:08;22.80;99.90
23520;DHT22;11936;50.820;4.336;2023-06-22T09:38:37;22.80;99.90
23520;DHT22;11936;50.820;4.336;2023-06-22T09:41:04;22.80;99.90
23520;DHT22;11936;50.820;4.336;2023-06-22T09:43:31;22.80;99.90
23520;DHT22;11936;50.820;4.336;2023-06-22T09:45:57;22.90;99.90
23520;DHT22;11936;50.820;4.336;2023-06-22T09:48:22;22.80;99.90
23520;DHT22;11936;50.820;4.336;2023-06-22T09:50:48;22.70;99.90
23520;DHT22;11936;50.820;4.336;2023-06-22T09:53:13;22.70;99.90
23520;DHT22;11936;50.820;4.336;2023-06-22T09:55:39;22.80;99.90
23520;DHT22;11936;50.820;4.336;2023-06-22T09:58:04;22.50;99.90
23520;DHT22;11936;50.820;4.336;2023-06-22T10:00:30;22.50;99.90
23520;DHT22;11936;50.820;4.336;2023-06-22T10:02:57;22.30;99.90
23520;DHT22;11936;50.820;4.336;2023-06-22T10:05:23;22.10;99.90
23520;DHT22;11936;50.820;4.336;2023-06-22T10:07:48;22.10;99.90
23520;DHT22;11936;50.820;4.336;2023-06-22T10:10:14;22.00;99.90
23520;DHT22;11936;50.820;4.336;2023-06-22T10:12:48;21.80;99.90
23520;DHT22;11936;50.820;4.336;2023-06-22T10:15:19;21.80;99.90
23520;DHT22;11936;50.820;4.336;2023-06-22T10:17:46;21.80;99.90
23520;DHT22;11936;50.820;4.336;2023-06-22T10:20:12;21.80;99.90
23520;DHT22;11936;50.820;4.336;2023-06-22T10:22:42;21.70;99.90
23520;DHT22;11936;50.820;4.336;2023-06-22T10:25:09;21.60;99.90
23520;DHT22;11936;50.820;4.336;2023-06-22T10:27:35;21.60;99.90
23520;DHT22;11936;50.820;4.336;2023-06-22T10:30:00;21.50;99.90
23520;DHT22;11936;50.820;4.336;2023-06-22T10:32:26;21.50;99.90
23520;DHT22;11936;50.820;4.336;2023-06-22T10:34:54;21.40;99.90
23520;DHT22;11936;50.820;4.336;2023-06-22T10:37:19;21.10;99.90
23520;DHT22;11936;50.820;4.336;2023-06-22T10:39:45;21.10;99.90
23520;DHT22;11936;50.820;4.336;2023-06-22T10:42:12;20.90;99.90
23520;DHT22;11936;50.820;4.336;2023-06-22T10:44:38;20.90;99.90
23520;DHT22;11936;50.820;4.336;2023-06-22T10:47:06;20.90;99.90
23520;DHT22;11936;50.820;4.336;2023-06-22T10:49:32;20.80;99.90
23520;DHT22;11936;50.820;4.336;2023-06-22T10:51:57;20.80;99.90
23520;DHT22;11936;50.820;4.336;2023-06-22T10:54:23;20.70;99.90
23520;DHT22;11936;50.820;4.336;2023-06-22T10:56:48;20.80;99.90
23520;DHT22;11936;50.820;4.336;2023-06-22T10:59:14;20.90;99.90
23520;DHT22;11936;50.820;4.336;2023-06-22T11:01:40;20.80;99.90
23520;DHT22;11936;50.820;4.336;2023-06-22T11:04:05;20.80;99.90
23520;DHT22;11936;50.820;4.336;2023-06-22T11:06:31;20.80;99.90
23520;DHT22;11936;50.820;4.336;2023-06-22T11:08:57;20.90;99.90
23520;DHT22;11936;50.820;4.336;2023-06-22T11:11:25;20.90;99.90
23520;DHT22;11936;50.820;4.336;2023-06-22T11:13:50;20.90;99.90
23520;DHT22;11936;50.820;4.336;2023-06-22T11:16:16;21.10;99.90
23520;DHT22;11936;50.820;4.336;2023-06-22T11:18:42;21.00;99.90
23520;DHT22;11936;50.820;4.336;2023-06-22T11:21:07;21.10;99.90
23520;DHT22;11936;50.820;4.336;2023-06-22T11:23:33;21.10;99.90
23520;DHT22;11936;50.820;4.336;2023-06-22T11:25:58;21.20;99.90
23520;DHT22;11936;50.820;4.336;2023-06-22T11:28:24;21.20;99.90
23520;DHT22;11936;50.820;4.336;2023-06-22T11:30:49;21.10;99.90
23520;DHT22;11936;50.820;4.336;2023-06-22T11:33:15;21.10;99.90
23520;DHT22;11936;50.820;4.336;2023-06-22T11:35:40;21.00;99.90
23520;DHT22;11936;50.820;4.336;2023-06-22T11:38:06;20.90;99.90
23520;DHT22;11936;50.820;4.336;2023-06-22T11:40:33;21.00;99.90
23520;DHT22;11936;50.820;4.336;2023-06-22T11:42:58;21.00;99.90
23520;DHT22;11936;50.820;4.336;2023-06-22T11:45:24;21.00;99.90
23520;DHT22;11936;50.820;4.336;2023-06-22T11:47:49;21.10;99.90
23520;DHT22;11936;50.820;4.336;2023-06-22T11:50:15;21.20;99.90
23520;DHT22;11936;50.820;4.336;2023-06-22T11:52:40;21.20;99.90
23520;DHT22;11936;50.820;4.336;2023-06-22T11:55:06;21.20;99.90
23520;DHT22;11936;50.820;4.336;2023-06-22T11:57:36;21.20;99.90
23520;DHT22;11936;50.820;4.336;2023-06-22T12:00:03;21.00;99.90
23520;DHT22;11936;50.820;4.336;2023-06-22T12:02:43;20.90;99.90
23520;DHT22;11936;50.820;4.336;2023-06-22T12:05:10;20.90;99.90
23520;DHT22;11936;50.820;4.336;2023-06-22T12:07:36;20.80;99.90
23520;DHT22;11936;50.820;4.336;2023-06-22T12:10:03;20.80;99.90
23520;DHT22;11936;50.820;4.336;2023-06-22T12:12:28;20.80;99.90
23520;DHT22;11936;50.820;4.336;2023-06-22T12:14:54;20.80;99.90
23520;DHT22;11936;50.820;4.336;2023-06-22T12:17:19;20.80;99.90
23520;DHT22;11936;50.820;4.336;2023-06-22T12:19:45;20.70;99.90
23520;DHT22;11936;50.820;4.336;2023-06-22T12:22:11;20.70;99.90
23520;DHT22;11936;50.820;4.336;2023-06-22T12:24:36;20.80;99.90
23520;DHT22;11936;50.820;4.336;2023-06-22T12:27:02;20.80;99.90
23520;DHT22;11936;50.820;4.336;2023-06-22T12:29:28;20.80;99.90
23520;DHT22;11936;50.820;4.336;2023-06-22T12:31:54;20.90;99.90
23520;DHT22;11936;50.820;4.336;2023-06-22T12:34:20;20.90;99.90
23520;DHT22;11936;50.820;4.336;2023-06-22T12:36:45;20.90;99.90
23520;DHT22;11936;50.820;4.336;2023-06-22T12:39:13;20.90;99.90
23520;DHT22;11936;50.820;4.336;2023-06-22T12:41:39;21.00;99.90
23520;DHT22;11936;50.820;4.336;2023-06-22T12:44:04;20.90;99.90
23520;DHT22;11936;50.820;4.336;2023-06-22T12:46:30;20.80;99.90
23520;DHT22;11936;50.820;4.336;2023-06-22T12:49:02;20.80;99.90
23520;DHT22;11936;50.820;4.336;2023-06-22T12:51:27;20.80;99.90
23520;DHT22;11936;50.820;4.336;2023-06-22T12:53:53;20.90;99.90
23520;DHT22;11936;50.820;4.336;2023-06-22T12:56:19;21.00;99.90
23520;DHT22;11936;50.820;4.336;2023-06-22T12:58:44;20.90;99.90
23520;DHT22;11936;50.820;4.336;2023-06-22T13:01:10;20.90;99.90
23520;DHT22;11936;50.820;4.336;2023-06-22T13:03:35;20.80;99.90
23520;DHT22;11936;50.820;4.336;2023-06-22T13:06:01;20.80;99.90
23520;DHT22;11936;50.820;4.336;2023-06-22T13:08:27;20.80;99.90
23520;DHT22;11936;50.820;4.336;2023-06-22T13:10:53;20.70;99.90
23520;DHT22;11936;50.820;4.336;2023-06-22T13:13:18;20.70;99.90
23520;DHT22;11936;50.820;4.336;2023-06-22T13:15:44;20.80;99.90
23520;DHT22;11936;50.820;4.336;2023-06-22T13:18:09;20.80;99.90
23520;DHT22;11936;50.820;4.336;2023-06-22T13:20:35;20.70;99.90
23520;DHT22;11936;50.820;4.336;2023-06-22T13:23:00;20.60;99.90
23520;DHT22;11936;50.820;4.336;2023-06-22T13:25:26;20.60;99.90
23520;DHT22;11936;50.820;4.336;2023-06-22T13:27:52;20.50;99.90
23520;DHT22;11936;50.820;4.336;2023-06-22T13:30:17;20.40;99.90
23520;DHT22;11936;50.820;4.336;2023-06-22T13:32:43;20.40;99.90
23520;DHT22;11936;50.820;4.336;2023-06-22T13:35:10;20.30;99.90
23520;DHT22;11936;50.820;4.336;2023-06-22T13:37:35;20.30;99.90
23520;DHT22;11936;50.820;4.336;2023-06-22T13:40:01;20.30;99.90
23520;DHT22;11936;50.820;4.336;2023-06-22T13:42:28;20.30;99.90
23520;DHT22;11936;50.820;4.336;2023-06-22T13:44:54;20.40;99.90
23520;DHT22;11936;50.820;4.336;2023-06-22T13:47:19;20.40;99.90
23520;DHT22;11936;50.820;4.336;2023-06-22T13:49:45;20.40;99.90
23520;DHT22;11936;50.820;4.336;2023-06-22T13:52:11;20.40;99.90
23520;DHT22;11936;50.820;4.336;2023-06-22T13:54:38;20.60;99.90
23520;DHT22;11936;50.820;4.336;2023-06-22T13:57:04;20.50;99.90
23520;DHT22;11936;50.820;4.336;2023-06-22T13:59:30;20.40;99.90
23520;DHT22;11936;50.820;4.336;2023-06-22T14:01:55;20.20;99.90
23520;DHT22;11936;50.820;4.336;2023-06-22T14:04:23;20.20;99.90
23520;DHT22;11936;50.820;4.336;2023-06-22T14:06:49;20.00;99.90
23520;DHT22;11936;50.820;4.336;2023-06-22T14:09:14;20.10;99.90
23520;DHT22;11936;50.820;4.336;2023-06-22T14:11:40;20.10;99.90
23520;DHT22;11936;50.820;4.336;2023-06-22T14:14:05;20.20;99.90
23520;DHT22;11936;50.820;4.336;2023-06-22T14:16:31;20.20;99.90
23520;DHT22;11936;50.820;4.336;2023-06-22T14:18:57;20.30;99.90
23520;DHT22;11936;50.820;4.336;2023-06-22T14:21:22;20.30;99.90
23520;DHT22;11936;50.820;4.336;2023-06-22T14:23:48;20.20;99.90
23520;DHT22;11936;50.820;4.336;2023-06-22T14:26:18;20.10;99.90
23520;DHT22;11936;50.820;4.336;2023-06-22T14:28:47;20.10;99.90
23520;DHT22;11936;50.820;4.336;2023-06-22T14:31:16;20.10;99.90
23520;DHT22;11936;50.820;4.336;2023-06-22T14:33:45;20.10;99.90
23520;DHT22;11936;50.820;4.336;2023-06-22T14:36:11;20.20;99.90
23520;DHT22;11936;50.820;4.336;2023-06-22T14:38:36;20.10;99.90
23520;DHT22;11936;50.820;4.336;2023-06-22T14:41:02;20.00;99.90
23520;DHT22;11936;50.820;4.336;2023-06-22T14:43:27;20.00;99.90
23520;DHT22;11936;50.820;4.336;2023-06-22T14:45:53;19.90;99.90
23520;DHT22;11936;50.820;4.336;2023-06-22T14:48:18;19.90;99.90
23520;DHT22;11936;50.820;4.336;2023-06-22T14:50:44;19.90;99.90
23520;DHT22;11936;50.820;4.336;2023-06-22T14:53:10;20.00;99.90
23520;DHT22;11936;50.820;4.336;2023-06-22T14:55:35;20.00;99.90
23520;DHT22;11936;50.820;4.336;2023-06-22T14:58:01;19.90;99.90
23520;DHT22;11936;50.820;4.336;2023-06-22T15:00:26;19.90;99.90
23520;DHT22;11936;50.820;4.336;2023-06-22T15:02:52;19.80;99.90
23520;DHT22;11936;50.820;4.336;2023-06-22T15:05:17;19.90;99.90
23520;DHT22;11936;50.820;4.336;2023-06-22T15:07:43;19.90;99.90
23520;DHT22;11936;50.820;4.336;2023-06-22T15:10:09;19.90;99.90
23520;DHT22;11936;50.820;4.336;2023-06-22T15:12:35;19.90;99.90
23520;DHT22;11936;50.820;4.336;2023-06-22T15:15:01;19.90;99.90
23520;DHT22;11936;50.820;4.336;2023-06-22T15:17:26;20.10;99.90
23520;DHT22;11936;50.820;4.336;2023-06-22T15:19:57;20.10;99.90
23520;DHT22;11936;50.820;4.336;2023-06-22T15:22:23;20.00;99.90
23520;DHT22;11936;50.820;4.336;2023-06-22T15:24:48;20.10;99.90
23520;DHT22;11936;50.820;4.336;2023-06-22T15:27:14;20.30;99.90
23520;DHT22;11936;50.820;4.336;2023-06-22T15:29:40;20.30;99.90
23520;DHT22;11936;50.820;4.336;2023-06-22T15:32:07;20.50;99.90
23520;DHT22;11936;50.820;4.336;2023-06-22T15:34:32;20.70;99.90